Main page
METAR-TAF:

METAR-TAF

Airports :

Camp Mabry

Austin, Texas, United States

latitude: 30-19N, longitude: 097-46W, elevation: 656 ft

Current weather observation

The report was made 14 minutes ago, at 11:51 UTC
Calm wind
Temperature 52°F
Humidity 82%
Pressure 30.01 in. Hg
Visibility: 10 miles
Clear sky

METAR: KATT 011151Z AUTO 00000KT 10SM CLR 11/08 A3001 RMK AO2 SLP158 T01060083 10139 20106 55001

Time: 07:05 (12:05 UTC)


TAF: missing

Weather observations and forecasts of more than 4000 airports (METAR and TAF reports).

The available stations are represented by yellow and red dots on the map.

Hover mouse over dot to see the name of the station.

Then click to see weather observations and forecasts.

To change the map : click on the green buttons with a black cross to zoom in, on the green button with a dash to zoom out, or on the green arrows for adjacent maps.


METAR-TAF: